WXM80 ListenWXM80 Stop

You find our weather info also at:

UK Metoffice

WeatherCloud

Weather Underground

Northeastern Weather Network

AWEKAS

Citizen Weather Observer Program (CWOP)

HAMweather, WeatherForYou, PWS Weather


Weather Underground History page Text

Daily Summary for June 10, 2017 Units:  Metric    English   Both
« Previous Day
Next Day »
Daily Weekly Monthly Yearly Custom
  High: Low: Average:
Temperature: 32.6 °C 16.1 °C 23.9 °C
Dew Point: 18.5 °C 12.4 °C 15.4 °C
Humidity: 84 % 38 % 61 %
Wind Speed: 11.6 km/h 0 km/h 3.2 km/h
Wind Gust: 25.7 km/h - -
Wind:- - SW
Pressure: 1015.1 hPa 1010 hPa -
Precipitation: 0 mm    
Historical Graphs
 
 
Tabular Data for June 10, 2017
Time Temperature Dew Point Pressure Wind Wind Speed Wind Gust Humidity Rainfall Rate (Hourly)
00:01 18.8 °C 12.7 °C 1010 hPa SW 1 km/h 3.7 km/h 68 % 0 mm
00:07 18.7 °C 12.7 °C 1010 hPa SW 1.9 km/h 5.6 km/h 68 % 0 mm
00:12 18.7 °C 12.7 °C 1010.4 hPa SW 0.3 km/h 1.6 km/h 68 % 0 mm
00:17 18.7 °C 12.7 °C 1010.4 hPa SW 0.2 km/h   68 % 0 mm
00:22 18.7 °C 12.7 °C 1010.4 hPa Calm     68 % 0 mm
00:27 18.7 °C 12.7 °C 1010.4 hPa SW 1.4 km/h 3.7 km/h 68 % 0 mm
00:32 18.6 °C 12.6 °C 1010.4 hPa Calm     68 % 0 mm
00:37 18.6 °C 12.6 °C 1010.4 hPa Calm     68 % 0 mm
00:42 18.6 °C 12.6 °C 1010.4 hPa Calm     68 % 0 mm
00:47 18.6 °C 12.6 °C 1010.4 hPa SW 0.6 km/h 3.7 km/h 68 % 0 mm
00:52 18.6 °C 12.6 °C 1010.4 hPa SW 0.6 km/h 3.7 km/h 68 % 0 mm
00:57 18.6 °C 12.6 °C 1010.7 hPa Calm   1.9 km/h 68 % 0 mm
01:02 18.6 °C 12.6 °C 1010.7 hPa SW 0.5 km/h 1.9 km/h 68 % 0 mm
01:07 18.6 °C 12.6 °C 1010.7 hPa SW 1.9 km/h 3.7 km/h 68 % 0 mm
01:12 18.6 °C 12.6 °C 1010.7 hPa SW 1.1 km/h 1.9 km/h 68 % 0 mm
01:23 18.6 °C 12.6 °C 1010.7 hPa SW 0.8 km/h 3.7 km/h 68 % 0 mm
01:28 18.7 °C 12.7 °C 1010.7 hPa SW 1.8 km/h 5.6 km/h 68 % 0 mm
01:33 18.7 °C 12.7 °C 1010.7 hPa SW 0.8 km/h 3.7 km/h 68 % 0 mm
01:38 18.7 °C 12.7 °C 1010.7 hPa SW 1.8 km/h 3.7 km/h 68 % 0 mm
01:39 18.7 °C 12.7 °C 1010.7 hPa SW 2.4 km/h 3.7 km/h 68 % 0 mm
01:44 18.7 °C 12.7 °C 1010.7 hPa SW 2.3 km/h 3.7 km/h 68 % 0 mm
01:49 18.7 °C 12.7 °C 1010.7 hPa SW 1.8 km/h 3.2 km/h 68 % 0 mm
01:54 18.7 °C 12.7 °C 1010.7 hPa SW 2.1 km/h 3.7 km/h 68 % 0 mm
01:59 18.7 °C 12.7 °C 1010.7 hPa SW 1.3 km/h 3.7 km/h 68 % 0 mm
02:04 18.7 °C 12.7 °C 1010.7 hPa SW 2.7 km/h 5.6 km/h 68 % 0 mm
02:09 18.7 °C 12.7 °C 1010.7 hPa SW 3.2 km/h 5.6 km/h 68 % 0 mm
02:14 18.6 °C 12.6 °C 1010.7 hPa SSW 1.3 km/h 3.7 km/h 68 % 0 mm
02:20 18.6 °C 12.6 °C 1011.1 hPa SSW 0.2 km/h 3.7 km/h 68 % 0 mm
02:25 18.6 °C 12.8 °C 1011.1 hPa SSW 2.6 km/h 3.7 km/h 69 % 0 mm
02:30 18.6 °C 12.6 °C 1010.7 hPa SSW 2.6 km/h 3.7 km/h 68 % 0 mm
02:35 18.5 °C 12.5 °C 1010.7 hPa SW 2.3 km/h 3.7 km/h 68 % 0 mm
02:40 18.5 °C 12.7 °C 1011.1 hPa SW 2.9 km/h 5.6 km/h 69 % 0 mm
02:45 18.4 °C 12.7 °C 1011.1 hPa SW 1.1 km/h 3.7 km/h 69 % 0 mm
02:50 18.4 °C 12.7 °C 1011.1 hPa SW 2.9 km/h 5.6 km/h 69 % 0 mm
02:55 18.4 °C 12.7 °C 1011.1 hPa SW 3.2 km/h 5.6 km/h 69 % 0 mm
03:00 18.4 °C 12.7 °C 1011.1 hPa SW 3.1 km/h 5.6 km/h 69 % 0 mm
03:05 18.4 °C 12.6 °C 1011.1 hPa WSW 2.9 km/h 5.6 km/h 69 % 0 mm
03:10 18.4 °C 12.7 °C 1011.1 hPa WSW 0.5 km/h 5.6 km/h 69 % 0 mm
03:15 18.4 °C 12.4 °C 1011.1 hPa WSW 1.4 km/h 3.7 km/h 68 % 0 mm
03:20 18.4 °C 12.4 °C 1011.1 hPa WSW 2.1 km/h 3.7 km/h 68 % 0 mm
03:25 18.5 °C 12.5 °C 1011.1 hPa WSW 1.9 km/h 3.7 km/h 68 % 0 mm
03:30 18.5 °C 12.7 °C 1011.1 hPa WSW 2.4 km/h 4.8 km/h 69 % 0 mm
03:35 18.5 °C 12.5 °C 1011.1 hPa WSW 1.8 km/h 3.7 km/h 68 % 0 mm
03:40 18.5 °C 12.5 °C 1011.1 hPa WSW 2.4 km/h 4.8 km/h 68 % 0 mm
03:45 18.5 °C 12.5 °C 1011.1 hPa WSW 1.8 km/h 3.7 km/h 68 % 0 mm
03:50 18.4 °C 12.4 °C 1011.4 hPa WSW 0.3 km/h 1.9 km/h 68 % 0 mm
03:55 18.4 °C 12.4 °C 1011.1 hPa WSW 1 km/h 1.9 km/h 68 % 0 mm
04:00 18.4 °C 12.4 °C 1011.4 hPa WSW 0.8 km/h 1.9 km/h 68 % 0 mm
04:05 18.4 °C 12.7 °C 1011.1 hPa WSW 2.7 km/h 5.6 km/h 69 % 0 mm
04:10 18.4 °C 12.6 °C 1011.4 hPa WSW 4.3 km/h 5.6 km/h 69 % 0 mm
04:15 18.3 °C 12.6 °C 1011.4 hPa WSW 2.9 km/h 5.6 km/h 69 % 0 mm
04:20 18.3 °C 12.5 °C 1011.4 hPa WSW 1.9 km/h 5.6 km/h 69 % 0 mm
04:25 18.2 °C 12.4 °C 1011.4 hPa WSW 1.1 km/h 3.7 km/h 69 % 0 mm
04:30 18.2 °C 12.4 °C 1011.4 hPa Calm   1.9 km/h 69 % 0 mm
04:35 18.2 °C 12.6 °C 1011.4 hPa Calm     70 % 0 mm
04:40 18.1 °C 12.8 °C 1011.4 hPa Calm     71 % 0 mm
04:45 18.1 °C 12.9 °C 1011.4 hPa WSW 1.3 km/h 3.7 km/h 72 % 0 mm
04:50 17.9 °C 12.6 °C 1011.4 hPa Calm   1.9 km/h 71 % 0 mm
04:55 17.8 °C 12.5 °C 1011.4 hPa WSW 0.6 km/h 3.7 km/h 71 % 0 mm
05:00 17.8 °C 12.9 °C 1011.7 hPa Calm   1.9 km/h 73 % 0 mm
05:05 17.6 °C 12.9 °C 1011.4 hPa WSW 0.3 km/h 1.9 km/h 74 % 0 mm
05:11 17.4 °C 12.8 °C 1011.4 hPa Calm   3.2 km/h 74 % 0 mm
05:16 17.3 °C 12.7 °C 1011.4 hPa Calm   1.6 km/h 74 % 0 mm
05:21 17.2 °C 12.9 °C 1011.7 hPa Calm     76 % 0 mm
05:26 17 °C 12.7 °C 1011.7 hPa Calm     76 % 0 mm
05:31 16.8 °C 12.6 °C 1011.7 hPa WSW 0.2 km/h 1.9 km/h 76 % 0 mm
05:36 16.7 °C 12.7 °C 1011.7 hPa Calm   1.6 km/h 77 % 0 mm
05:41 16.6 °C 12.6 °C 1011.7 hPa WSW 1.6 km/h 1.9 km/h 77 % 0 mm
05:43 16.6 °C 12.5 °C 1011.7 hPa Calm   1.9 km/h 77 % 0 mm
05:49 16.4 °C 12.4 °C 1011.7 hPa Calm   1.9 km/h 77 % 0 mm
05:54 16.4 °C 12.9 °C 1012.1 hPa Calm     80 % 0 mm
05:59 16.3 °C 12.8 °C 1012.1 hPa Calm     80 % 0 mm
06:04 16.2 °C 12.8 °C 1012.1 hPa Calm     80 % 0 mm
06:09 16.2 °C 12.7 °C 1012.1 hPa Calm     80 % 0 mm
06:14 16.1 °C 12.4 °C 1012.1 hPa Calm     79 % 0 mm
06:19 16.1 °C 12.7 °C 1012.4 hPa Calm     80 % 0 mm
06:24 16.1 °C 13.1 °C 1012.4 hPa Calm     82 % 0 mm
06:29 16.1 °C 13.1 °C 1012.4 hPa WSW 0.3 km/h 1.9 km/h 82 % 0 mm
06:34 16.2 °C 13.3 °C 1012.4 hPa WSW 0.2 km/h 1.9 km/h 83 % 0 mm
06:39 16.3 °C 13.6 °C 1012.4 hPa WSW 0.2 km/h 1.9 km/h 84 % 0 mm
06:44 16.4 °C 13.3 °C 1012.4 hPa WSW 0.6 km/h 1.9 km/h 82 % 0 mm
06:49 16.6 °C 13.4 °C 1012.4 hPa WSW 2.3 km/h 3.7 km/h 82 % 0 mm
06:54 16.8 °C 13.5 °C 1012.4 hPa WSW 0.5 km/h 1.9 km/h 81 % 0 mm
06:59 17.1 °C 13.4 °C 1012.8 hPa WSW 2.4 km/h 3.7 km/h 79 % 0 mm
07:04 17.4 °C 13.8 °C 1012.8 hPa WSW 1.3 km/h 3.7 km/h 79 % 0 mm
07:09 17.8 °C 13.9 °C 1012.8 hPa WSW 3.5 km/h 9.7 km/h 78 % 0 mm
07:14 18.2 °C 14.1 °C 1012.8 hPa SW 1.1 km/h 1.9 km/h 77 % 0 mm
07:19 18.6 °C 14.2 °C 1013.1 hPa WSW 6.3 km/h 9.7 km/h 76 % 0 mm
07:24 18.9 °C 14.4 °C 1013.1 hPa West 4 km/h 11.1 km/h 75 % 0 mm
07:29 19.3 °C 14.1 °C 1013.1 hPa WSW 6 km/h 11.1 km/h 72 % 0 mm
07:34 19.6 °C 14.2 °C 1013.4 hPa WSW 3.9 km/h 11.1 km/h 71 % 0 mm
07:40 19.9 °C 14.5 °C 1013.4 hPa WSW 5.1 km/h 9.3 km/h 71 % 0 mm
07:45 20.1 °C 14.4 °C 1013.4 hPa West 2.6 km/h 7.4 km/h 70 % 0 mm
07:50 20.2 °C 14.7 °C 1013.4 hPa WSW 3.4 km/h 5.6 km/h 71 % 0 mm
07:55 20.3 °C 14.6 °C 1013.4 hPa West 2.9 km/h 8 km/h 70 % 0 mm
08:00 20.4 °C 14.5 °C 1013.4 hPa West 3.9 km/h 7.4 km/h 69 % 0 mm
08:05 20.5 °C 14.6 °C 1013.4 hPa SW 4.3 km/h 7.4 km/h 69 % 0 mm
08:10 20.6 °C 14.5 °C 1013.4 hPa WNW 4.7 km/h 9.3 km/h 68 % 0 mm
08:12 20.7 °C 14.6 °C 1013.8 hPa West 4 km/h 5.6 km/h 68 % 0 mm
08:17 20.8 °C 14.9 °C 1013.8 hPa WSW 0.2 km/h 1.9 km/h 69 % 0 mm
08:22 20.9 °C 15.3 °C 1013.8 hPa WNW 1.8 km/h 4.8 km/h 70 % 0 mm
08:27 21.1 °C 14.7 °C 1013.8 hPa WNW 4 km/h 6.4 km/h 67 % 0 mm
08:32 21.3 °C 14.7 °C 1013.8 hPa WSW 6.3 km/h 11.1 km/h 66 % 0 mm
08:37 21.4 °C 14.6 °C 1014.1 hPa West 7.6 km/h 11.1 km/h 65 % 0 mm
08:42 21.7 °C 14.3 °C 1014.1 hPa WSW 6.9 km/h 11.1 km/h 63 % 0 mm
08:47 21.8 °C 14.4 °C 1014.1 hPa SW 5.5 km/h 14.5 km/h 63 % 0 mm
08:52 21.9 °C 14.8 °C 1014.1 hPa WSW 5 km/h 9.7 km/h 64 % 0 mm
08:57 22.1 °C 14.9 °C 1014.1 hPa WSW 4.7 km/h 11.1 km/h 64 % 0 mm
09:02 22.1 °C 15.2 °C 1014.1 hPa West 3.7 km/h 6.4 km/h 65 % 0 mm
09:03 22.1 °C 15 °C 1014.1 hPa WSW 4.7 km/h 12.9 km/h 64 % 0 mm
09:08 22.2 °C 15.1 °C 1014.1 hPa WSW 2.1 km/h 11.1 km/h 64 % 0 mm
09:13 22.3 °C 15.2 °C 1014.1 hPa WSW 6 km/h 9.3 km/h 64 % 0 mm
09:18 22.4 °C 15.1 °C 1014.1 hPa WSW 7.9 km/h 11.1 km/h 63 % 0 mm
09:23 22.6 °C 15.4 °C 1014.1 hPa West 4.2 km/h 7.4 km/h 64 % 0 mm
09:28 22.7 °C 15.6 °C 1014.1 hPa WSW 8.2 km/h 11.1 km/h 64 % 0 mm
09:32 22.8 °C 15.7 °C 1014.1 hPa WNW 4.7 km/h 11.1 km/h 64 % 0 mm
09:37 23.1 °C 15.6 °C 1014.1 hPa WSW 4.3 km/h 7.4 km/h 63 % 0 mm
09:42 23.3 °C 16.1 °C 1014.4 hPa WNW 3.5 km/h 7.4 km/h 64 % 0 mm
09:47 23.7 °C 16 °C 1014.4 hPa WSW 4 km/h 7.4 km/h 62 % 0 mm
09:52 24.2 °C 16.2 °C 1014.4 hPa SW 8.5 km/h 17.7 km/h 61 % 0 mm
09:57 24.8 °C 16.7 °C 1014.8 hPa NW 3.7 km/h 11.1 km/h 61 % 0 mm
10:02 25.2 °C 16.1 °C 1014.8 hPa NW 2.1 km/h 5.6 km/h 57 % 0 mm
10:07 25.5 °C 15.8 °C 1014.8 hPa WSW 6.9 km/h 11.1 km/h 55 % 0 mm
10:12 26 °C 16.3 °C 1014.8 hPa SW 9.5 km/h 14.8 km/h 55 % 0 mm
10:17 26.5 °C 16.4 °C 1014.8 hPa WSW 6.8 km/h 14.8 km/h 54 % 0 mm
10:22 26.9 °C 17.1 °C 1014.8 hPa WNW 2.4 km/h 5.6 km/h 55 % 0 mm
10:28 27.3 °C 17.4 °C 1014.8 hPa WSW 6 km/h 14.5 km/h 55 % 0 mm
10:33 27.6 °C 16.9 °C 1014.8 hPa WSW 5.6 km/h 7.4 km/h 52 % 0 mm
10:38 27.9 °C 16.9 °C 1014.4 hPa WSW 0.8 km/h 9.3 km/h 51 % 0 mm
10:43 28.2 °C 16.4 °C 1014.4 hPa WSW 9 km/h 13 km/h 49 % 0 mm
10:48 28.4 °C 16.9 °C 1014.4 hPa WNW 4.2 km/h 9.3 km/h 50 % 0 mm
10:53 28.6 °C 16.8 °C 1014.4 hPa West 1.4 km/h 3.7 km/h 49 % 0 mm
10:58 28.7 °C 16.9 °C 1014.4 hPa SW 6.8 km/h 9.3 km/h 49 % 0 mm
11:03 28.9 °C 17.1 °C 1014.4 hPa SW 6.6 km/h 11.1 km/h 49 % 0 mm
11:08 28.9 °C 16.8 °C 1014.4 hPa WSW 3.9 km/h 7.4 km/h 48 % 0 mm
11:13 29.1 °C 17 °C 1014.4 hPa SW 4.8 km/h 7.4 km/h 48 % 0 mm
11:14 29.1 °C 16.7 °C 1014.4 hPa WSW 0.6 km/h 7.4 km/h 47 % 0 mm
11:19 29.3 °C 17.1 °C 1014.4 hPa WNW 2.3 km/h 5.6 km/h 48 % 0 mm
11:24 29.5 °C 17.7 °C 1014.4 hPa SW 6 km/h 9.3 km/h 49 % 0 mm
11:29 29.8 °C 17.3 °C 1014.1 hPa West 2.9 km/h 5.6 km/h 47 % 0 mm
11:34 29.8 °C 16.3 °C 1014.1 hPa WSW 3.5 km/h 5.6 km/h 44 % 0 mm
11:39 30 °C 17.4 °C 1014.1 hPa SSW 4.2 km/h 7.4 km/h 47 % 0 mm
11:44 30.2 °C 17.3 °C 1014.1 hPa SW 5.8 km/h 11.1 km/h 46 % 0 mm
11:49 30.3 °C 17.4 °C 1014.1 hPa WSW 6 km/h 9.7 km/h 46 % 0 mm
11:54 30.4 °C 17.5 °C 1014.1 hPa SW 4.8 km/h 9.3 km/h 46 % 0 mm
11:59 30.4 °C 17.5 °C 1014.1 hPa WSW 2.3 km/h 8 km/h 46 % 0 mm
12:04 30.5 °C 17.6 °C 1014.1 hPa NW 3.7 km/h 11.1 km/h 46 % 0 mm
12:09 30.7 °C 17.4 °C 1014.1 hPa North 6.8 km/h 14.8 km/h 45 % 0 mm
12:14 30.8 °C 17.2 °C 1014.1 hPa West 6.9 km/h 11.1 km/h 44 % 0 mm
12:19 31 °C 17.7 °C 1014.1 hPa WNW 1.4 km/h 3.7 km/h 45 % 0 mm
12:22 31.1 °C 17.8 °C 1014.1 hPa NW 5.8 km/h 11.1 km/h 45 % 0 mm
12:27 31.2 °C 17.1 °C 1014.1 hPa WNW 1.4 km/h 5.6 km/h 43 % 0 mm
12:32 31.3 °C 18.3 °C 1014.1 hPa WSW 1.9 km/h 9.7 km/h 46 % 0 mm
12:37 31.3 °C 16.8 °C 1014.1 hPa WSW 2.6 km/h 11.1 km/h 42 % 0 mm
12:42 31.4 °C 17.3 °C 1014.1 hPa West 4.2 km/h 9.3 km/h 43 % 0 mm
12:47 31.4 °C 16.2 °C 1014.1 hPa WNW 6.4 km/h 11.1 km/h 40 % 0 mm
12:52 31.5 °C 16.7 °C 1014.1 hPa SW 6.6 km/h 13 km/h 41 % 0 mm
12:57 31.5 °C 16.7 °C 1013.8 hPa North 7.2 km/h 14.8 km/h 41 % 0 mm
13:02 31.5 °C 18.5 °C 1013.8 hPa WNW 1.6 km/h 9.3 km/h 46 % 0 mm
13:07 31.6 °C 17.5 °C 1013.8 hPa WNW 5.6 km/h 9.7 km/h 43 % 0 mm
13:13 31.7 °C 17.6 °C 1013.8 hPa NNE 3.5 km/h 7.4 km/h 43 % 0 mm
13:18 31.8 °C 16.9 °C 1013.4 hPa West 1.8 km/h 13 km/h 41 % 0 mm
13:23 32 °C 18.2 °C 1013.4 hPa NW 1.4 km/h 7.4 km/h 44 % 0 mm
13:28 32.2 °C 18.4 °C 1013.4 hPa NNE 0.8 km/h 1.9 km/h 44 % 0 mm
13:33 32.3 °C 16.6 °C 1013.4 hPa WNW 1.4 km/h 3.7 km/h 39 % 0 mm
13:34 32.3 °C 17.4 °C 1013.4 hPa WNW 2.6 km/h 3.7 km/h 41 % 0 mm
13:39 32.4 °C 17.5 °C 1013.4 hPa WSW 3.4 km/h 11.1 km/h 41 % 0 mm
13:44 32.5 °C 17.2 °C 1013.4 hPa SW 5.5 km/h 8 km/h 40 % 0 mm
13:49 32.5 °C 16.3 °C 1013.4 hPa WSW 5.5 km/h 11.1 km/h 38 % 0 mm
13:54 32.6 °C 17.2 °C 1013.4 hPa SW 5.6 km/h 14.8 km/h 40 % 0 mm
13:59 32.5 °C 16.3 °C 1013.4 hPa WSW 10.5 km/h 16.7 km/h 38 % 0 mm
14:04 32.5 °C 17.2 °C 1013.4 hPa SW 7.7 km/h 13 km/h 40 % 0 mm
14:09 32.6 °C 16.8 °C 1013.4 hPa West 7.7 km/h 16.7 km/h 39 % 0 mm
14:14 32.5 °C 16.8 °C 1013.1 hPa WSW 11.6 km/h 25.7 km/h 39 % 0 mm
14:19 32.4 °C 16.7 °C 1013.4 hPa SSW 6.3 km/h 14.8 km/h 39 % 0 mm
14:24 32.4 °C 16.3 °C 1013.1 hPa WSW 3.7 km/h 14.8 km/h 38 % 0 mm
14:29 32.4 °C 17.1 °C 1013.1 hPa SW 6.1 km/h 17.7 km/h 40 % 0 mm
14:34 32.4 °C 17.1 °C 1013.1 hPa SSW 4.3 km/h 8 km/h 40 % 0 mm
14:39 32.4 °C 16.7 °C 1013.1 hPa SW 7.6 km/h 14.8 km/h 39 % 0 mm
14:44 32.4 °C 17.1 °C 1013.1 hPa SSE 7.6 km/h 16.7 km/h 40 % 0 mm
14:49 32.4 °C 17.1 °C 1013.1 hPa WNW 5.8 km/h 11.3 km/h 40 % 0 mm
14:54 32.3 °C 16.9 °C 1013.4 hPa SSW 7.6 km/h 16.7 km/h 40 % 0 mm
14:59 32.2 °C 17.7 °C 1013.1 hPa SSW 6 km/h 8 km/h 42 % 0 mm
15:04 32.1 °C 17.6 °C 1013.1 hPa South 1.1 km/h 5.6 km/h 42 % 0 mm
15:09 31.8 °C 16.5 °C 1013.1 hPa SW 7.4 km/h 14.8 km/h 40 % 0 mm
15:14 31.6 °C 17.1 °C 1013.1 hPa SE 2.7 km/h 11.1 km/h 42 % 0 mm
15:19 31.3 °C 17.3 °C 1013.1 hPa SSE 1 km/h 3.7 km/h 43 % 0 mm
15:24 31.2 °C 16.8 °C 1013.1 hPa SSW 6 km/h 13 km/h 42 % 0 mm
15:30 31.2 °C 17.4 °C 1013.1 hPa SSW 1.9 km/h 7.4 km/h 44 % 0 mm
15:35 31 °C 17.3 °C 1013.1 hPa SE 5 km/h 9.3 km/h 44 % 0 mm
15:40 30.6 °C 15.8 °C 1013.1 hPa South 7.6 km/h 16.7 km/h 41 % 0 mm
15:45 30.2 °C 17.3 °C 1013.1 hPa SSW 4.5 km/h 9.3 km/h 46 % 0 mm
15:50 29.9 °C 16.7 °C 1013.1 hPa SSW 3.5 km/h 11.1 km/h 45 % 0 mm
15:55 29.7 °C 16.2 °C 1013.1 hPa SSE 5.3 km/h 13 km/h 44 % 0 mm
16:00 29.4 °C 16.6 °C 1013.1 hPa SSE 3.7 km/h 9.3 km/h 46 % 0 mm
16:05 29.3 °C 17.2 °C 1013.1 hPa South 1.4 km/h 7.4 km/h 48 % 0 mm
16:10 29.3 °C 16.4 °C 1013.1 hPa East 3.1 km/h 5.6 km/h 46 % 0 mm
16:15 29.2 °C 16.7 °C 1013.1 hPa SSW 6.8 km/h 11.1 km/h 47 % 0 mm
16:20 29.1 °C 16.6 °C 1013.1 hPa SSE 1.6 km/h 9.3 km/h 47 % 0 mm
16:25 28.8 °C 16.7 °C 1013.1 hPa West 1.9 km/h 5.6 km/h 48 % 0 mm
16:40 28.7 °C 17.6 °C 1012.8 hPa SSW 6 km/h 24.1 km/h 51 % 0 mm
16:45 28.7 °C 17.3 °C 1012.8 hPa SW 3.1 km/h 9.3 km/h 50 % 0 mm
16:50 28.7 °C 16.9 °C 1012.8 hPa SW 5.5 km/h 12.9 km/h 49 % 0 mm
16:55 28.7 °C 16.6 °C 1012.8 hPa South 7.4 km/h 18.5 km/h 48 % 0 mm
17:00 28.6 °C 16.8 °C 1012.4 hPa SSE 5.3 km/h 11.1 km/h 49 % 0 mm
17:05 28.6 °C 16.8 °C 1012.8 hPa SSW 6.8 km/h 11.1 km/h 49 % 0 mm
17:10 28.5 °C 16.4 °C 1012.4 hPa SSW 5.3 km/h 8 km/h 48 % 0 mm
17:15 28.4 °C 16.4 °C 1012.4 hPa SE 6.1 km/h 11.1 km/h 48 % 0 mm
17:20 28.3 °C 15.9 °C 1012.4 hPa South 5.5 km/h 8 km/h 47 % 0 mm
17:25 28.1 °C 15.7 °C 1012.4 hPa South 2.9 km/h 5.6 km/h 47 % 0 mm
17:28 28.1 °C 16 °C 1012.4 hPa SE 2.6 km/h 7.4 km/h 48 % 0 mm
17:33 28 °C 16.3 °C 1012.4 hPa SE 0.8 km/h 7.4 km/h 49 % 0 mm
17:39 27.9 °C 15.9 °C 1012.4 hPa SSE 3.4 km/h 6.4 km/h 48 % 0 mm
17:40 27.9 °C 15.9 °C 1012.4 hPa SSE 5.1 km/h 9.3 km/h 48 % 0 mm
17:46 27.8 °C 15.8 °C 1012.4 hPa South 6.9 km/h 11.3 km/h 48 % 0 mm
17:51 27.6 °C 15.6 °C 1012.4 hPa South 4.8 km/h 11.3 km/h 48 % 0 mm
17:56 27.5 °C 15.8 °C 1012.4 hPa SE 2.9 km/h 11.1 km/h 49 % 0 mm
18:01 27.3 °C 15.7 °C 1012.4 hPa SSW 3.5 km/h 11.1 km/h 49 % 0 mm
18:06 27.2 °C 15.8 °C 1012.4 hPa South 2.7 km/h 13 km/h 50 % 0 mm
18:11 27.1 °C 16.1 °C 1012.4 hPa SW 2.7 km/h 5.6 km/h 51 % 0 mm
18:16 26.9 °C 15.9 °C 1012.4 hPa South 1.8 km/h 5.6 km/h 51 % 0 mm
18:21 26.7 °C 15.7 °C 1012.4 hPa SSE 2.1 km/h 5.6 km/h 51 % 0 mm
18:26 26.6 °C 15.9 °C 1012.4 hPa SSW 1.6 km/h 5.6 km/h 52 % 0 mm
18:31 26.4 °C 16.1 °C 1012.8 hPa South 5.5 km/h 18.5 km/h 53 % 0 mm
18:36 26.4 °C 16.1 °C 1012.4 hPa SSW 5.6 km/h 11.3 km/h 53 % 0 mm
18:41 26.3 °C 16.2 °C 1012.4 hPa SSW 5.1 km/h 11.1 km/h 54 % 0 mm
18:46 26.2 °C 16.4 °C 1012.4 hPa SSE 6.1 km/h 9.7 km/h 55 % 0 mm
18:51 26.1 °C 16.4 °C 1012.4 hPa SSW 6.1 km/h 11.3 km/h 55 % 0 mm
18:56 26.1 °C 16.3 °C 1012.8 hPa SW 2.6 km/h 5.6 km/h 55 % 0 mm
19:01 25.9 °C 16.5 °C 1012.8 hPa SSW 5.1 km/h 9.7 km/h 56 % 0 mm
19:06 25.8 °C 16.4 °C 1012.8 hPa South 5.5 km/h 9.3 km/h 56 % 0 mm
19:11 25.8 °C 16.6 °C 1013.1 hPa WSW 6.4 km/h 11.1 km/h 57 % 0 mm
19:16 25.7 °C 16.5 °C 1012.8 hPa WSW 4.2 km/h 14.8 km/h 57 % 0 mm
19:21 25.6 °C 16.4 °C 1012.8 hPa SW 4.8 km/h 13 km/h 57 % 0 mm
19:26 25.5 °C 16.6 °C 1013.1 hPa SSW 4.2 km/h 11.1 km/h 58 % 0 mm
19:31 25.3 °C 16.5 °C 1013.1 hPa SSW 2.3 km/h 9.3 km/h 58 % 0 mm
19:36 25.2 °C 16.6 °C 1013.1 hPa SW 4 km/h 8 km/h 59 % 0 mm
19:41 25.1 °C 16.6 °C 1013.1 hPa SSW 5.5 km/h 11.1 km/h 59 % 0 mm
19:46 24.9 °C 16.4 °C 1013.1 hPa SSW 3.7 km/h 13 km/h 59 % 0 mm
19:51 24.8 °C 16.6 °C 1013.1 hPa South 5.1 km/h 14.8 km/h 60 % 0 mm
19:56 24.7 °C 16.4 °C 1013.1 hPa SE 3.2 km/h 9.3 km/h 60 % 0 mm
20:01 24.6 °C 16.3 °C 1013.1 hPa South 3.1 km/h 5.6 km/h 60 % 0 mm
20:06 24.5 °C 16.5 °C 1013.1 hPa WSW 2.7 km/h 5.6 km/h 61 % 0 mm
20:11 24.3 °C 16.3 °C 1013.4 hPa SW 1.9 km/h 7.4 km/h 61 % 0 mm
20:16 24.3 °C 16.6 °C 1013.4 hPa SE 2.7 km/h 5.6 km/h 62 % 0 mm
20:21 24.2 °C 16.4 °C 1013.4 hPa South 2.6 km/h 9.3 km/h 62 % 0 mm
20:26 24.1 °C 16.6 °C 1013.4 hPa SW 1.6 km/h 5.6 km/h 63 % 0 mm
20:31 23.9 °C 16.4 °C 1013.4 hPa South 3.4 km/h 5.6 km/h 63 % 0 mm
20:36 23.8 °C 16.6 °C 1013.8 hPa SSW 3.9 km/h 9.3 km/h 64 % 0 mm
20:41 23.8 °C 16.6 °C 1013.8 hPa South 1 km/h 5.6 km/h 64 % 0 mm
20:46 23.7 °C 16.7 °C 1013.8 hPa South 1 km/h 11.1 km/h 65 % 0 mm
20:52 23.6 °C 16.7 °C 1013.8 hPa South 1.4 km/h 5.6 km/h 65 % 0 mm
20:57 23.5 °C 16.8 °C 1013.8 hPa SW 2.9 km/h 5.6 km/h 66 % 0 mm
21:02 23.4 °C 16.7 °C 1014.1 hPa South 1.8 km/h 5.6 km/h 66 % 0 mm
21:07 23.4 °C 16.9 °C 1014.1 hPa South 1 km/h 3.7 km/h 67 % 0 mm
21:12 23.3 °C 16.8 °C 1014.1 hPa SSW 1.3 km/h 5.6 km/h 67 % 0 mm
21:17 23.2 °C 16.8 °C 1014.1 hPa SSW 3.5 km/h 5.6 km/h 67 % 0 mm
21:22 23.2 °C 16.9 °C 1014.1 hPa SSW 3.1 km/h 5.6 km/h 68 % 0 mm
21:24 23.2 °C 16.9 °C 1014.1 hPa SW 3.4 km/h 7.4 km/h 68 % 0 mm
21:30 23.1 °C 17.1 °C 1014.4 hPa SSW 1 km/h 5.6 km/h 69 % 0 mm
21:35 22.9 °C 16.9 °C 1014.4 hPa SW 1 km/h 5.6 km/h 69 % 0 mm
21:40 22.9 °C 16.9 °C 1014.4 hPa SSW 2.7 km/h 5.6 km/h 69 % 0 mm
21:45 22.8 °C 16.8 °C 1014.8 hPa SSW 1.1 km/h 5.6 km/h 69 % 0 mm
21:50 22.8 °C 17.1 °C 1014.8 hPa WSW 1.1 km/h 5.6 km/h 70 % 0 mm
21:55 22.8 °C 17 °C 1014.8 hPa WSW 1.1 km/h 5.6 km/h 70 % 0 mm
22:00 22.7 °C 16.9 °C 1014.8 hPa SSE 0.2 km/h 1.9 km/h 70 % 0 mm
22:05 22.7 °C 16.9 °C 1014.8 hPa South 1 km/h 5.6 km/h 70 % 0 mm
22:10 22.6 °C 16.8 °C 1015.1 hPa SSW 2.7 km/h 5.6 km/h 70 % 0 mm
22:15 22.6 °C 16.8 °C 1015.1 hPa SSW 3.5 km/h 5.6 km/h 70 % 0 mm
22:20 22.6 °C 17.1 °C 1015.1 hPa SSE 4.2 km/h 11.1 km/h 71 % 0 mm
22:25 22.5 °C 17 °C 1014.8 hPa WSW 5 km/h 7.4 km/h 71 % 0 mm
22:30 22.5 °C 17 °C 1015.1 hPa SW 1 km/h 3.7 km/h 71 % 0 mm
22:35 22.5 °C 17 °C 1015.1 hPa WSW 4 km/h 8 km/h 71 % 0 mm
22:38 22.4 °C 17.2 °C 1015.1 hPa SW 3.2 km/h 5.6 km/h 72 % 0 mm
22:43 22.4 °C 17.2 °C 1015.1 hPa SW 5 km/h 6.4 km/h 72 % 0 mm
22:48 22.4 °C 17.1 °C 1015.1 hPa SSW 0.6 km/h 5.6 km/h 72 % 0 mm
22:53 22.4 °C 17.1 °C 1014.8 hPa SSW 6.6 km/h 13 km/h 72 % 0 mm
22:58 22.4 °C 17.1 °C 1014.8 hPa SSW 2.4 km/h 5.6 km/h 72 % 0 mm
23:03 22.3 °C 17.1 °C 1015.1 hPa SSW 1.4 km/h 5.6 km/h 72 % 0 mm
23:08 22.3 °C 17.1 °C 1014.8 hPa SSW 2.3 km/h 8 km/h 72 % 0 mm
23:13 22.3 °C 17 °C 1015.1 hPa West 3.1 km/h 5.6 km/h 72 % 0 mm
23:18 22.2 °C 16.9 °C 1014.8 hPa SE 1.1 km/h 3.7 km/h 72 % 0 mm
23:23 22.2 °C 16.9 °C 1014.8 hPa WSW 5.6 km/h 5.6 km/h 72 % 0 mm
23:28 22.2 °C 16.9 °C 1014.8 hPa WSW 5 km/h 18.5 km/h 72 % 0 mm
23:33 22.1 °C 17.1 °C 1015.1 hPa SW 1.9 km/h 5.6 km/h 73 % 0 mm
23:39 22.1 °C 17 °C 1015.1 hPa SSW 2.6 km/h 5.6 km/h 73 % 0 mm
23:44 22.1 °C 17 °C 1015.1 hPa SW 1.8 km/h 5.6 km/h 73 % 0 mm
23:49 22 °C 17.2 °C 1015.1 hPa SSW 5 km/h 11.3 km/h 74 % 0 mm
23:54 22 °C 17.2 °C 1015.1 hPa SW 1.6 km/h 5.6 km/h 74 % 0 mm
23:59 21.9 °C 17.1 °C 1015.1 hPa SSW 4.8 km/h 8 km/h 74 % 0 mm
Crab Meadow Weather
Compliments of Weather Underground - 3 mb

Script developed by  Jim McMurry - jmcmurry@mwt.net Adapted for the template by  Wim van der Kuil - Leuven-Template.eu

Astronomy: Water covers 71% of Earth.